Strona główna
METAR-TAF:

METAR-TAF

Lotnisko :

Port lotniczy Knock

Knock, Irlandia

Szerokość geograficzna: 53-54-37N, Długość geograficzna: 008-49-05W, wysokość: 203 m

METAR: brakujący

czas: 03:19 (02:19 UTC)

Prognoza

Raport powstał 21 godziny i 19 minut temu, godzina 05:00 UTC
Prognoza ważna od 30 godzina 06 UTC do 31 godzina 06 UTC
Wiatr 7 kt od północno-północny zachód
Widzialność 10 km lub więcej
Rozproszone chmury na wysokości 4000 ft
Stopniowe zmiany
od 30 godzina 07 UTC do 30 godzina 09 UTC
Wiatr 12 kt od północ
Przejściowo
od 30 godzina 11 UTC do 30 godzina 18 UTC
Wiatr 15 kt od północ w porywach dochodzący do 25 kt
Stopniowe zmiany
od 31 godzina 01 UTC do 31 godzina 03 UTC
Wiatr 6 kt od północno-północny wschód

TAF: EIKN 300500Z 3006/3106 34007KT 9999 SCT040 BECMG 3007/3009 01012KT TEMPO 3011/3018 01015G25KT BECMG 3101/3103 02006KT

Obserwacja i prognoza pogody dla ponad 4000 lotnisk (raport METAR i TAF).

Dostępne stacje oznaczono żółtymi i czerwonymi punktami na mapie.

Najedź kursorem aby zobaczyć nazwę stacji.

Kliknij aby zobaczyć obserwacje i prognozy pogody.

Aby zmienić mapę: kliknij na zielony przycisk z czarnym krzyżykiem, aby powiększyć; na zielony przycisk z myślnikiem, aby pomniejszyć; na zielone strzałki, aby przejść do map sąsiednich.


METAR-TAF: